首页
METAR-TAF:

METAR-TAF

机场 :

坎伯蘭, 马里兰州, 美国

纬度: 39-36-56N, 经度: 078-45-39W, 海拔: 236米

当前天气观测

该预报发布于25分钟前的04:35 UTC
风速7节,风向西转西南,在南转西南西之间变化
温度 1°C
湿度 59%
气压 1019 hPa
能見度: 16.1公里
散云层高于3500英尺
多云层高于4800英尺
阴天层高于6500英尺

METAR: KCBE 190435Z AUTO 24007KT 210V270 10SM SCT035 BKN048 OVC065 01/M06 A3010 RMK AO2 T00061059

时间: 00:00 (05:00 UTC)


TAF: 丢失

超过4000个机场的气象观测和天气预报(METAR&TAF报告)。

可查询的气象台以黄色和红色小点在地图上表示。

将鼠标移到小点上方,可查看气象台名称。

然后点击查看天气观测和预报。

如需切换地图:点击带黑十字的绿色按钮放大地图;点击带横线的绿色按钮缩小地图;或者点击绿色箭头查看邻近地区的地图。


METAR-TAF: